Time;durP1;ratioP1;P1;durP2;ratioP2;P2;SDS_P1;SDS_P2;PMS_P1;PMS_P2;Temp;Humidity;BMP_temperature;BMP_pressure;BME280_temperature;BME280_humidity;BME280_pressure;Samples;Min_cycle;Max_cycle;Signal;HPM_P1;HPM_P2
2023/04/06 00:00:32;;;;;;;;;4.50;3.25;;;;;22.51;33.34;101694.97;5078553;28;45408;-78
2023/04/06 00:02:58;;;;;;;;;5.50;4.50;;;;;22.51;33.33;101688.84;5077938;28;45593;-79
2023/04/06 00:05:23;;;;;;;;;5.75;5.00;;;;;22.51;33.11;101699.44;5078146;28;45459;-79
2023/04/06 00:07:49;;;;;;;;;4.50;4.50;;;;;22.42;33.51;101674.75;5078613;28;45429;-79
2023/04/06 00:10:16;;;;;;;;;4.25;4.00;;;;;22.52;33.19;101690.50;5078156;28;45446;-79
2023/04/06 00:12:41;;;;;;;;;5.25;5.25;;;;;22.48;33.65;101681.22;5078197;28;46198;-78
2023/04/06 00:15:07;;;;;;;;;7.50;5.00;;;;;22.51;33.55;101680.88;5078106;28;45328;-79
2023/04/06 00:17:33;;;;;;;;;6.00;5.00;;;;;22.50;33.34;101685.38;5077750;28;45324;-79
2023/04/06 00:19:58;;;;;;;;;6.00;4.50;;;;;22.50;33.35;101677.44;5078135;28;45337;-79
2023/04/06 00:22:24;;;;;;;;;5.75;5.00;;;;;22.47;33.45;101671.59;5077921;28;46659;-79
2023/04/06 00:24:49;;;;;;;;;7.00;5.00;;;;;22.48;33.52;101679.38;5077993;28;45328;-79
2023/04/06 00:27:14;;;;;;;;;4.75;4.75;;;;;22.46;33.44;101677.88;5078048;28;45542;-79
2023/04/06 00:29:40;;;;;;;;;7.00;6.00;;;;;22.47;33.53;101676.91;5078041;28;45366;-79
2023/04/06 00:32:05;;;;;;;;;5.00;3.00;;;;;22.46;33.83;101670.78;5077421;28;45593;-80
2023/04/06 00:34:30;;;;;;;;;4.50;4.50;;;;;22.46;33.81;101668.13;5077962;28;45419;-79
2023/04/06 00:36:56;;;;;;;;;4.25;4.25;;;;;22.46;33.27;101662.81;5077166;28;45257;-79
2023/04/06 00:39:21;;;;;;;;;3.50;3.50;;;;;22.44;33.38;101666.63;5078250;28;45363;-79
2023/04/06 00:41:52;;;;;;;;;4.00;4.00;;;;;22.45;33.59;101660.34;5077913;28;46208;-78
2023/04/06 00:44:18;;;;;;;;;4.00;4.00;;;;;22.45;33.96;101663.00;5077814;28;45380;-78
2023/04/06 00:46:44;;;;;;;;;5.75;4.00;;;;;22.45;33.42;101660.34;5077405;28;45432;-78
2023/04/06 00:49:10;;;;;;;;;6.50;5.25;;;;;22.43;33.61;101647.22;5076834;28;45252;-79
2023/04/06 00:51:35;;;;;;;;;5.00;5.00;;;;;22.42;33.63;101648.25;5077476;28;45963;-79
2023/04/06 00:54:00;;;;;;;;;3.25;3.25;;;;;22.43;33.78;101649.88;5077497;28;45325;-78
2023/04/06 00:56:26;;;;;;;;;5.50;4.00;;;;;22.43;33.80;101649.88;5077530;28;45228;-79
2023/04/06 00:58:51;;;;;;;;;4.00;4.00;;;;;22.42;33.40;101647.41;5077545;28;45365;-78
2023/04/06 01:01:17;;;;;;;;;4.00;4.00;;;;;22.42;33.35;101642.09;5076956;28;45388;-78
2023/04/06 01:03:44;;;;;;;;;4.50;3.50;;;;;22.36;33.80;101631.16;5077457;28;45329;-79
2023/04/06 01:06:09;;;;;;;;;3.75;3.00;;;;;22.41;33.94;101643.91;5077487;28;45419;-79
2023/04/06 01:08:36;;;;;;;;;5.25;4.25;;;;;22.41;33.51;101638.63;5077331;28;45353;-78
2023/04/06 01:11:01;;;;;;;;;4.75;4.75;;;;;22.40;33.46;101629.81;5077003;28;46082;-79
2023/04/06 01:13:27;;;;;;;;;3.00;3.00;;;;;22.33;33.93;101615.56;5076809;28;45323;-79
2023/04/06 01:15:53;;;;;;;;;3.25;3.25;;;;;22.34;33.80;101608.44;5077342;28;45299;-78
2023/04/06 01:18:25;;;;;;;;;5.00;4.00;;;;;22.37;33.94;101614.25;5077260;28;45591;-79
2023/04/06 01:20:50;;;;;;;;;4.75;4.75;;;;;22.41;33.83;101625.34;5076848;28;46187;-79
2023/04/06 01:23:16;;;;;;;;;5.25;3.50;;;;;22.42;33.46;101621.72;5076927;28;45296;-78
2023/04/06 01:25:41;;;;;;;;;3.00;3.00;;;;;22.42;33.54;101626.19;5077167;28;45406;-79
2023/04/06 01:28:06;;;;;;;;;5.00;5.00;;;;;22.36;33.70;101617.91;5076621;28;45650;-79
2023/04/06 01:30:32;;;;;;;;;5.00;4.00;;;;;22.43;33.93;101614.59;5077178;28;46078;-79
2023/04/06 01:32:57;;;;;;;;;5.25;3.00;;;;;22.43;33.44;101619.91;5076641;28;45367;-79
2023/04/06 01:35:22;;;;;;;;;4.00;4.00;;;;;22.41;33.82;101604.16;5077238;28;45314;-79
2023/04/06 01:37:48;;;;;;;;;4.00;4.00;;;;;22.42;33.86;101600.50;5076315;28;45383;-79
2023/04/06 01:40:13;;;;;;;;;7.00;4.00;;;;;22.42;33.84;101597.88;5076762;28;45247;-79
2023/04/06 01:42:39;;;;;;;;;3.25;3.25;;;;;22.42;33.50;101592.56;5076569;28;45336;-80
2023/04/06 01:45:05;;;;;;;;;4.00;4.00;;;;;22.42;33.70;101589.06;5076836;28;45320;-79
2023/04/06 01:47:30;;;;;;;;;5.75;4.75;;;;;22.40;33.53;101579.44;5058591;28;45623;-78
2023/04/06 01:49:56;;;;;;;;;4.25;4.00;;;;;22.40;33.97;101578.66;5075921;28;45964;-79
2023/04/06 01:52:21;;;;;;;;;5.00;4.25;;;;;22.39;33.63;101583.13;5076521;28;45258;-79
2023/04/06 01:54:46;;;;;;;;;4.50;3.00;;;;;22.39;34.00;101587.56;5076641;28;45404;-79
2023/04/06 01:57:12;;;;;;;;;7.00;5.00;;;;;22.38;33.53;101585.91;5076025;28;45546;-79
2023/04/06 01:59:37;;;;;;;;;6.00;5.00;;;;;22.38;33.58;101581.44;5076510;28;46052;-79
2023/04/06 02:02:02;;;;;;;;;5.00;5.00;;;;;22.38;33.68;101576.13;5076491;28;45367;-78
2023/04/06 02:04:28;;;;;;;;;5.75;5.75;;;;;22.29;34.08;101554.13;5076597;28;45266;-78
2023/04/06 02:06:53;;;;;;;;;5.00;5.00;;;;;22.37;33.68;101563.91;5076525;28;45355;-79
2023/04/06 02:09:18;;;;;;;;;6.50;5.50;;;;;22.37;33.61;101569.19;5076372;28;45400;-79
2023/04/06 02:11:44;;;;;;;;;5.25;4.00;;;;;22.38;33.91;101570.00;5076033;28;45401;-79
2023/04/06 02:14:09;;;;;;;;;3.25;2.25;;;;;22.37;34.22;101571.84;5076424;28;45270;-78
2023/04/06 02:16:35;;;;;;;;;3.75;3.75;;;;;22.37;33.58;101571.00;5076498;28;45297;-79
2023/04/06 02:19:00;;;;;;;;;5.00;4.00;;;;;22.37;34.09;101568.34;5076089;28;46081;-79
2023/04/06 02:21:26;;;;;;;;;3.00;3.00;;;;;22.37;34.13;101569.19;5076208;28;45359;-79
2023/04/06 02:23:51;;;;;;;;;4.25;4.25;;;;;22.36;33.71;101567.53;5076464;28;45571;-79
2023/04/06 02:26:16;;;;;;;;;5.00;5.00;;;;;22.26;33.86;101548.31;5075783;28;45309;-78
2023/04/06 02:28:42;;;;;;;;;4.50;4.25;;;;;22.35;34.32;101567.69;5076057;28;45806;-79
2023/04/06 02:31:08;;;;;;;;;4.00;3.50;;;;;22.36;33.85;101558.75;5057726;28;45710;-78
2023/04/06 02:33:33;;;;;;;;;6.00;6.00;;;;;22.35;33.91;101555.25;5076066;28;45364;-79
2023/04/06 02:35:59;;;;;;;;;5.75;4.25;;;;;22.34;34.40;101558.91;5076104;28;45228;-79
2023/04/06 02:38:24;;;;;;;;;4.25;4.25;;;;;22.33;33.75;101549.28;5075712;28;46007;-79
2023/04/06 02:40:50;;;;;;;;;4.00;3.75;;;;;22.29;34.27;101551.47;5075485;28;45355;-79
2023/04/06 02:43:16;;;;;;;;;5.75;5.00;;;;;22.34;33.74;101547.47;5076146;28;45330;-79
2023/04/06 02:45:42;;;;;;;;;4.50;4.50;;;;;22.34;34.18;101550.13;5075998;28;45398;-80
2023/04/06 02:48:07;;;;;;;;;4.25;4.25;;;;;22.33;33.97;101544.00;5075614;28;45332;-79
2023/04/06 02:50:32;;;;;;;;;5.25;4.50;;;;;22.34;34.45;101542.16;5075882;28;45375;-79
2023/04/06 02:52:58;;;;;;;;;5.00;5.00;;;;;22.34;34.32;101545.66;5075807;28;45431;-79
2023/04/06 02:55:23;;;;;;;;;7.00;5.50;;;;;22.34;34.10;101543.00;5075526;28;45364;-79
2023/04/06 02:57:48;;;;;;;;;5.00;5.00;;;;;22.34;33.75;101545.66;5075582;28;46272;-79
2023/04/06 03:00:14;;;;;;;;;4.75;4.75;;;;;22.36;34.25;101543.66;5075622;28;45321;-79
2023/04/06 03:02:39;;;;;;;;;6.00;5.00;;;;;22.36;33.85;101543.66;5078653;28;45385;-79
2023/04/06 03:05:05;;;;;;;;;3.00;3.00;;;;;22.32;34.14;101531.75;5078455;28;45618;-78
2023/04/06 03:07:30;;;;;;;;;3.00;3.00;;;;;22.35;34.25;101535.88;5079208;28;47026;-80
2023/04/06 03:09:56;;;;;;;;;6.00;6.00;;;;;22.37;33.75;101531.25;5078853;28;45355;-79
2023/04/06 03:12:21;;;;;;;;;4.75;4.75;;;;;22.38;34.05;101540.84;5079233;28;45330;-79
2023/04/06 03:14:46;;;;;;;;;6.25;6.25;;;;;22.37;34.42;101531.25;5079178;28;45366;-79
2023/04/06 03:17:12;;;;;;;;;5.00;5.00;;;;;22.36;33.84;101532.22;5079114;28;45335;-79
2023/04/06 03:19:37;;;;;;;;;4.25;4.00;;;;;22.33;34.02;101533.38;5079205;28;45288;-79
2023/04/06 03:22:02;;;;;;;;;4.00;4.00;;;;;22.35;34.09;101535.88;5079126;28;45360;-79
2023/04/06 03:24:28;;;;;;;;;5.00;3.75;;;;;22.31;34.61;101524.78;5078814;28;45550;-79
2023/04/06 03:26:53;;;;;;;;;4.00;4.00;;;;;22.31;34.07;101531.91;5078681;28;46305;-79
2023/04/06 03:29:18;;;;;;;;;5.00;5.00;;;;;22.34;34.00;101528.91;5078913;28;45293;-79
2023/04/06 03:31:44;;;;;;;;;3.00;3.00;;;;;22.33;34.70;101530.72;5078867;28;45233;-79
2023/04/06 03:34:09;;;;;;;;;7.25;5.00;;;;;22.34;34.57;101531.56;5078816;28;45445;-79
2023/04/06 03:36:35;;;;;;;;;4.25;2.50;;;;;22.33;34.09;101524.63;5078305;28;46846;-79
2023/04/06 03:39:01;;;;;;;;;6.00;3.75;;;;;22.22;34.38;101505.41;5078401;28;45401;-78
2023/04/06 03:41:26;;;;;;;;;4.00;4.00;;;;;22.32;33.98;101523.78;5078861;28;45501;-79
2023/04/06 03:43:52;;;;;;;;;4.75;4.75;;;;;22.32;34.31;101521.16;5078628;28;45483;-79
2023/04/06 03:46:18;;;;;;;;;3.75;3.75;;;;;22.28;34.13;101509.19;5078397;28;46023;-80
2023/04/06 03:48:43;;;;;;;;;7.25;3.75;;;;;22.32;33.90;101515.00;5078602;28;45285;-79
2023/04/06 03:51:09;;;;;;;;;6.25;5.00;;;;;22.31;34.25;101511.53;5078746;28;45359;-79
2023/04/06 03:53:34;;;;;;;;;4.00;4.00;;;;;22.30;34.19;101512.53;5078201;28;45338;-79
2023/04/06 03:56:00;;;;;;;;;4.00;4.00;;;;;22.29;34.12;101506.41;5078359;28;46334;-76
2023/04/06 03:58:25;;;;;;;;;5.25;4.25;;;;;22.29;34.56;101502.91;5078311;28;45363;-76
2023/04/06 04:00:50;;;;;;;;;6.00;4.75;;;;;22.29;34.42;101511.69;5078550;28;45329;-77
2023/04/06 04:03:15;;;;;;;;;3.00;3.00;;;;;22.30;34.26;101504.59;5078487;28;45454;-75
2023/04/06 04:05:43;;;;;;;;;4.00;4.00;;;;;22.29;34.30;101506.41;5078146;28;46162;-75
2023/04/06 04:08:08;;;;;;;;;6.75;4.00;;;;;22.31;34.60;101505.38;5077936;28;45234;-74
2023/04/06 04:10:33;;;;;;;;;2.75;2.75;;;;;22.31;34.34;101505.38;5078317;28;45549;-74
2023/04/06 04:12:59;;;;;;;;;4.00;2.50;;;;;22.31;35.01;101506.22;5077649;28;45263;-75
2023/04/06 04:15:24;;;;;;;;;4.50;4.00;;;;;22.33;34.49;101508.72;5077934;28;46133;-75
2023/04/06 04:17:50;;;;;;;;;4.75;4.75;;;;;22.29;34.94;101500.25;5078195;28;45325;-76
2023/04/06 04:20:16;;;;;;;;;3.00;3.00;;;;;22.33;34.88;101512.19;5078275;28;45433;-76
2023/04/06 04:22:41;;;;;;;;;1.50;1.50;;;;;22.34;35.03;101505.88;5077795;28;45543;-76
2023/04/06 04:25:07;;;;;;;;;3.00;3.00;;;;;22.34;34.41;101503.25;5077844;28;45930;-76
2023/04/06 04:27:33;;;;;;;;;3.00;2.50;;;;;22.29;35.15;101495.78;5077681;28;45439;-76
2023/04/06 04:29:58;;;;;;;;;3.00;3.00;;;;;22.35;35.17;101504.06;5078113;28;45411;-75
2023/04/06 04:32:27;;;;;;;;;4.00;4.00;;;;;22.35;34.54;101507.53;5059758;28;45507;-75
2023/04/06 04:34:55;;;;;;;;;5.50;4.00;;;;;22.36;35.21;101503.06;5077539;28;46326;-76
2023/04/06 04:37:20;;;;;;;;;4.50;4.00;;;;;22.33;34.82;101492.81;5077156;28;45455;-76
2023/04/06 04:39:46;;;;;;;;;5.25;5.00;;;;;22.36;35.04;101503.91;5077952;28;45289;-76
2023/04/06 04:42:11;;;;;;;;;3.00;3.00;;;;;22.36;35.13;101497.75;5077912;28;45269;-75
2023/04/06 04:44:37;;;;;;;;;6.00;4.50;;;;;22.36;35.22;101495.13;5077659;28;46359;-76
2023/04/06 04:47:02;;;;;;;;;4.00;4.00;;;;;22.35;34.84;101501.44;5076274;28;45421;-76
2023/04/06 04:49:27;;;;;;;;;5.50;3.75;;;;;22.34;35.25;101497.94;5077761;28;45384;-77
2023/04/06 04:51:53;;;;;;;;;3.00;3.00;;;;;22.34;35.45;101500.59;5059098;28;45709;-76
2023/04/06 04:54:19;;;;;;;;;5.75;4.50;;;;;22.25;34.99;101478.53;5077332;28;45349;-76
2023/04/06 04:56:45;;;;;;;;;4.75;4.00;;;;;22.31;35.51;101482.34;5077209;28;45391;-75
2023/04/06 04:59:10;;;;;;;;;4.00;4.00;;;;;22.33;35.42;101487.50;5077537;28;45325;-77
2023/04/06 05:01:35;;;;;;;;;3.25;3.25;;;;;22.32;35.39;101483.19;5077479;28;45349;-76
2023/04/06 05:04:01;;;;;;;;;3.25;3.25;;;;;22.33;34.95;101485.66;5077240;28;47116;-76
2023/04/06 05:06:26;;;;;;;;;3.75;3.75;;;;;22.32;35.17;101484.03;5077038;28;45281;-76
2023/04/06 05:08:51;;;;;;;;;4.75;4.00;;;;;22.33;35.03;101488.31;5077448;28;45319;-78
2023/04/06 05:11:17;;;;;;;;;7.00;4.00;;;;;22.32;35.25;101480.53;5077405;28;45459;-76
2023/04/06 05:13:42;;;;;;;;;4.25;3.00;;;;;22.32;35.57;101486.69;5077131;28;45333;-76
2023/04/06 05:16:07;;;;;;;;;4.00;4.00;;;;;22.33;35.30;101490.16;5076776;28;45376;-77
2023/04/06 05:18:33;;;;;;;;;4.00;4.00;;;;;22.32;35.27;101486.69;5077379;28;45219;-75
2023/04/06 05:20:58;;;;;;;;;3.00;3.00;;;;;22.31;35.72;101481.53;5076739;28;45443;-76
2023/04/06 05:23:24;;;;;;;;;4.00;4.00;;;;;22.33;35.75;101490.16;5076440;28;45444;-75
2023/04/06 05:25:49;;;;;;;;;3.00;3.00;;;;;22.34;35.79;101487.34;5076294;28;45361;-75
2023/04/06 05:28:15;;;;;;;;;3.75;2.75;;;;;22.34;35.47;101481.19;5076965;28;45515;-75
2023/04/06 05:30:42;;;;;;;;;3.00;3.00;;;;;22.29;35.42;101482.53;5077035;28;45407;-76
2023/04/06 05:33:07;;;;;;;;;4.50;4.50;;;;;22.32;35.85;101484.03;5076692;28;45494;-74
2023/04/06 05:35:33;;;;;;;;;3.25;3.25;;;;;22.32;35.24;101484.03;5076301;28;45398;-75
2023/04/06 05:37:58;;;;;;;;;4.25;3.50;;;;;22.32;35.39;101478.72;5076888;28;45369;-75
2023/04/06 05:40:23;;;;;;;;;4.25;4.00;;;;;22.32;35.58;101480.53;5076922;28;45459;-75
2023/04/06 05:42:49;;;;;;;;;2.50;2.50;;;;;22.32;35.41;101480.53;5076650;28;46116;-75
2023/04/06 05:45:16;;;;;;;;;4.00;4.00;;;;;22.29;35.44;101474.59;5076601;28;45359;-75
2023/04/06 05:47:44;;;;;;;;;4.25;3.75;;;;;22.32;35.50;101481.38;5076654;28;45441;-75
2023/04/06 05:50:11;;;;;;;;;5.00;3.25;;;;;22.33;35.65;101479.56;5076123;28;45309;-74
2023/04/06 05:52:36;;;;;;;;;4.50;4.50;;;;;22.33;35.56;101479.56;5076458;28;47118;-75
2023/04/06 05:55:02;;;;;;;;;3.00;3.00;;;;;22.33;35.69;101471.59;5076347;28;45329;-74
2023/04/06 05:57:28;;;;;;;;;3.50;3.50;;;;;22.32;35.54;101465.47;5076408;28;45322;-74
2023/04/06 05:59:53;;;;;;;;;3.00;2.25;;;;;22.34;35.32;101467.94;5076518;28;45491;-73
2023/04/06 06:02:18;;;;;;;;;4.00;3.50;;;;;22.33;35.49;101463.66;5076458;28;45392;-74
2023/04/06 06:04:44;;;;;;;;;2.75;2.75;;;;;22.29;36.07;101453.38;5075984;28;45313;-75
2023/04/06 06:07:09;;;;;;;;;4.50;4.50;;;;;22.34;35.69;101467.94;5077003;28;45331;-83
2023/04/06 06:09:35;;;;;;;;;3.00;3.00;;;;;22.33;35.69;101461.81;5076732;28;45368;-83
2023/04/06 06:12:00;;;;;;;;;5.00;3.50;;;;;22.34;36.33;101462.63;5076540;28;45993;-83
2023/04/06 06:14:28;;;;;;;;;3.50;2.75;;;;;22.36;36.28;101463.28;5076943;28;45437;-85
2023/04/06 06:16:53;;;;;;;;;3.00;3.00;;;;;22.36;35.93;101461.47;5076386;28;45399;-76
2023/04/06 06:19:19;;;;;;;;;2.25;2.25;;;;;22.37;36.45;101463.16;5066433;28;45633;-76
2023/04/06 06:21:44;;;;;;;;;3.25;3.00;;;;;22.36;36.01;101456.19;5062752;28;45817;-76
2023/04/06 06:24:10;;;;;;;;;4.00;4.00;;;;;22.37;36.41;101454.38;5070784;28;45589;-75
2023/04/06 06:26:36;;;;;;;;;4.25;3.00;;;;;22.37;36.21;101451.72;5086594;27;45344;-76
2023/04/06 06:29:03;;;;;;;;;3.00;3.00;;;;;22.36;36.09;101450.03;5071253;28;45354;-75
2023/04/06 06:31:28;;;;;;;;;4.75;4.75;;;;;22.37;35.97;101449.06;5070831;28;46083;-75
2023/04/06 06:33:53;;;;;;;;;4.75;3.75;;;;;22.36;36.30;101453.53;5070175;28;45764;-75
2023/04/06 06:36:19;;;;;;;;;4.00;4.00;;;;;22.36;36.05;101452.69;5070395;28;45457;-76
2023/04/06 06:38:44;;;;;;;;;3.25;3.25;;;;;22.29;36.26;101445.44;5069995;28;45410;-75
2023/04/06 06:41:10;;;;;;;;;3.50;3.50;;;;;22.32;36.31;101448.72;5070503;28;45980;-75
2023/04/06 06:43:36;;;;;;;;;4.00;4.00;;;;;22.36;36.68;101456.19;5070531;28;45432;-77
2023/04/06 06:46:01;;;;;;;;;3.25;2.00;;;;;22.37;36.08;101452.53;5055250;28;45433;-76
2023/04/06 06:48:27;;;;;;;;;3.00;3.00;;;;;22.36;36.59;101456.19;5070222;28;45816;-76
2023/04/06 06:50:52;;;;;;;;;4.50;4.50;;;;;22.29;36.43;101441.94;5069143;28;46841;-76
2023/04/06 06:53:17;;;;;;;;;4.50;3.00;;;;;22.34;36.61;101447.56;5070474;28;45337;-76
2023/04/06 06:55:44;;;;;;;;;4.25;3.00;;;;;22.34;36.14;101455.53;5070061;28;45448;-75
2023/04/06 06:58:09;;;;;;;;;2.00;2.00;;;;;22.33;36.53;101453.84;5070529;28;45502;-74
2023/04/06 07:00:35;;;;;;;;;3.00;3.00;;;;;22.33;35.99;101451.22;5068643;28;46436;-76
2023/04/06 07:03:00;;;;;;;;;5.25;3.75;;;;;22.34;36.66;101452.88;5069356;28;45382;-74
2023/04/06 07:05:26;;;;;;;;;3.75;3.75;;;;;22.34;36.31;101454.69;5069310;28;45366;-71
2023/04/06 07:07:52;;;;;;;;;3.00;3.00;;;;;22.34;36.76;101455.53;5047428;28;45428;-78
2023/04/06 07:10:17;;;;;;;;;4.25;4.25;;;;;22.36;36.17;101460.66;5070028;28;46122;-79
2023/04/06 07:12:42;;;;;;;;;6.25;3.75;;;;;22.36;36.56;101455.34;5068927;28;45590;-78
2023/04/06 07:15:08;;;;;;;;;5.75;3.00;;;;;22.34;36.80;101449.38;5051615;28;45405;-78
2023/04/06 07:17:34;;;;;;;;;4.50;2.50;;;;;22.35;36.73;101451.84;5069794;28;45518;-75
2023/04/06 07:19:59;;;;;;;;;2.00;0.00;;;;;22.37;36.63;101452.53;5070232;28;45932;-74
2023/04/06 07:22:25;;;;;;;;;2.00;2.00;;;;;22.37;36.56;101457.00;5070168;28;45419;-76
2023/04/06 07:24:50;;;;;;;;;3.00;3.00;;;;;22.37;36.04;101454.38;5069784;28;45434;-77
2023/04/06 07:27:17;;;;;;;;;4.50;3.00;;;;;22.36;36.59;101452.69;5070009;28;45525;-75
2023/04/06 07:29:42;;;;;;;;;4.25;3.00;;;;;22.29;36.39;101441.94;5069510;28;46238;-75
2023/04/06 07:32:08;;;;;;;;;2.50;2.50;;;;;22.36;36.69;101450.88;5058126;28;45376;-76
2023/04/06 07:34:33;;;;;;;;;2.50;2.50;;;;;22.36;36.31;101439.44;5069798;28;45307;-75
2023/04/06 07:37:00;;;;;;;;;2.00;2.00;;;;;22.36;36.19;101453.53;5069193;27;45691;-77
2023/04/06 07:39:26;;;;;;;;;3.75;3.75;;;;;22.35;36.65;101449.22;5069009;28;46370;-78
2023/04/06 07:41:52;;;;;;;;;5.50;4.00;;;;;22.34;36.52;101454.69;5069564;28;45517;-74
2023/04/06 07:44:18;;;;;;;;;3.25;3.00;;;;;22.33;36.55;101453.84;5069177;28;45514;-75
2023/04/06 07:46:43;;;;;;;;;4.75;2.50;;;;;22.34;36.01;101462.63;5064268;28;45592;-77
2023/04/06 07:49:08;;;;;;;;;4.25;2.25;;;;;22.26;36.29;101448.41;5077637;28;46077;-76
2023/04/06 07:51:37;;;;;;;;;5.25;2.25;;;;;22.12;36.11;101430.53;5078209;28;45412;-78
2023/04/06 07:54:02;;;;;;;;;5.00;4.00;;;;;22.32;36.77;101456.69;5078565;28;45456;-75
2023/04/06 07:56:28;;;;;;;;;4.00;3.00;;;;;22.35;36.37;101459.81;5078437;28;45286;-77
2023/04/06 07:58:56;;;;;;;;;3.00;3.00;;;;;22.35;36.69;101462.47;5077907;28;45333;-77
2023/04/06 08:01:21;;;;;;;;;5.75;4.50;;;;;22.34;36.45;101463.47;5078044;28;45229;-77
2023/04/06 08:03:47;;;;;;;;;7.75;4.00;;;;;22.34;36.51;101462.63;5078467;28;45426;-77
2023/04/06 08:06:12;;;;;;;;;5.25;3.50;;;;;22.34;36.63;101452.88;5078248;28;45302;-78
2023/04/06 08:08:37;;;;;;;;;5.50;2.50;;;;;22.34;37.11;101458.19;5078140;28;46046;-77
2023/04/06 08:11:03;;;;;;;;;3.00;3.00;;;;;22.35;36.85;101456.34;5078071;28;45455;-78
2023/04/06 08:13:28;;;;;;;;;2.50;2.50;;;;;22.27;36.92;101446.59;5078492;28;45309;-77
2023/04/06 08:15:54;;;;;;;;;3.00;3.00;;;;;22.30;36.61;101459.50;5077995;28;45381;-77
2023/04/06 08:18:19;;;;;;;;;3.00;2.00;;;;;22.34;36.54;101479.38;5078032;28;46927;-77
2023/04/06 08:20:44;;;;;;;;;3.25;3.25;;;;;22.35;36.44;101480.22;5078174;28;45356;-77
2023/04/06 08:23:10;;;;;;;;;3.00;3.00;;;;;22.32;36.55;101483.19;5078175;28;45416;-77
2023/04/06 08:25:36;;;;;;;;;3.25;3.25;;;;;22.23;36.94;101477.06;5077166;28;45587;-77
2023/04/06 08:28:03;;;;;;;;;3.00;3.00;;;;;22.34;36.96;101486.50;5077667;28;46796;-77
2023/04/06 08:30:29;;;;;;;;;3.00;3.00;;;;;22.27;36.65;101479.22;5059336;28;45358;-77
2023/04/06 08:32:54;;;;;;;;;2.25;2.25;;;;;22.35;36.39;101494.28;5077832;28;46023;-77
2023/04/06 08:35:20;;;;;;;;;4.00;3.00;;;;;22.32;36.55;101488.50;5077840;28;45345;-77
2023/04/06 08:37:45;;;;;;;;;2.75;2.75;;;;;22.36;36.41;101493.28;5077592;28;46316;-77
2023/04/06 08:40:13;;;;;;;;;2.00;2.00;;;;;22.37;36.53;101510.88;5077841;28;45376;-76
2023/04/06 08:42:49;;;;;;;;;2.75;2.75;;;;;22.28;36.28;101482.69;5077894;28;45411;-77
2023/04/06 08:45:16;;;;;;;;;5.00;3.75;;;;;22.38;36.64;101501.06;5077347;28;45309;-77
2023/04/06 08:47:42;;;;;;;;;1.67;1.67;;;;;22.38;36.86;101501.91;5077417;28;45387;-77
2023/04/06 08:50:08;;;;;;;;;2.00;2.00;;;;;22.35;36.27;101486.31;5077753;28;45383;-77
2023/04/06 08:52:34;;;;;;;;;3.50;2.50;;;;;22.39;36.47;101495.63;5077929;28;45332;-77
2023/04/06 08:55:00;;;;;;;;;3.25;3.00;;;;;22.40;36.39;101489.31;5077470;28;45427;-77
2023/04/06 08:57:26;;;;;;;;;3.25;3.25;;;;;22.40;36.80;101491.94;5077031;28;46001;-77
2023/04/06 08:59:52;;;;;;;;;4.50;3.25;;;;;22.40;36.85;101477.91;5077282;28;45348;-77
2023/04/06 09:02:19;;;;;;;;;2.50;2.50;;;;;22.45;36.49;101488.81;5077407;28;45518;-77
2023/04/06 09:04:47;;;;;;;;;3.00;3.00;;;;;22.47;36.89;101486.00;5077398;28;45357;-78
2023/04/06 09:07:14;;;;;;;;;3.00;2.75;;;;;22.49;36.55;101487.47;5077559;28;45322;-78
2023/04/06 09:09:43;;;;;;;;;3.00;3.00;;;;;22.51;36.78;101492.59;5077265;28;45251;-77
2023/04/06 09:12:12;;;;;;;;;3.25;3.25;;;;;22.52;36.46;101489.81;5076943;28;45501;-78
2023/04/06 09:14:38;;;;;;;;;3.00;1.67;;;;;22.54;36.73;101486.13;5077114;28;45459;-77
2023/04/06 09:17:04;;;;;;;;;2.25;2.25;;;;;22.52;36.72;101478.38;5077069;28;45456;-78
2023/04/06 09:19:30;;;;;;;;;3.75;3.00;;;;;22.51;36.64;101474.88;5077017;28;45474;-78
2023/04/06 09:22:07;;;;;;;;;3.50;2.00;;;;;22.54;36.29;101478.19;5077385;28;45367;-78
2023/04/06 09:24:41;;;;;;;;;3.75;2.75;;;;;22.55;36.52;101469.25;5058836;28;45317;-77
2023/04/06 09:27:06;;;;;;;;;4.00;2.33;;;;;22.55;36.72;101466.59;5076388;28;46075;-77
2023/04/06 09:29:32;;;;;;;;;2.00;2.00;;;;;22.61;36.28;101476.53;5076985;28;45401;-78
2023/04/06 09:32:05;;;;;;;;;2.00;2.00;;;;;22.64;36.15;101481.47;5076949;28;45273;-78
2023/04/06 09:34:31;;;;;;;;;3.75;3.75;;;;;22.67;36.48;101472.34;5077091;28;45382;-78
2023/04/06 09:36:56;;;;;;;;;2.50;2.50;;;;;22.68;36.48;101479.34;5076434;28;47024;-78
2023/04/06 09:39:23;;;;;;;;;2.00;2.00;;;;;22.70;36.10;101472.88;5076778;28;45363;-78
2023/04/06 09:41:51;;;;;;;;;1.67;1.67;;;;;22.71;36.51;101468.41;5076531;28;45462;-77
2023/04/06 09:44:16;;;;;;;;;2.33;2.33;;;;;22.70;36.05;101472.88;5076710;28;45332;-77
2023/04/06 09:46:43;;;;;;;;;3.50;3.25;;;;;22.70;36.03;101469.41;5076616;28;45419;-78
2023/04/06 09:49:10;;;;;;;;;2.25;2.25;;;;;22.71;35.94;101473.72;5076662;28;45468;-78
2023/04/06 09:51:40;;;;;;;;;2.00;2.00;;;;;22.68;36.39;101472.22;5076673;28;45512;-78
2023/04/06 09:54:07;;;;;;;;;2.25;2.25;;;;;22.65;36.34;101463.75;5076445;28;45352;-77
2023/04/06 09:57:02;;;;;;;;;2.00;2.00;;;;;22.67;36.25;101472.34;5076191;28;46293;-77
2023/04/06 09:59:51;;;;;;;;;2.00;2.00;;;;;22.66;35.83;101473.38;5076254;28;45373;-78
2023/04/06 10:02:55;;;;;;;;;1.25;1.25;;;;;22.63;35.99;101470.06;5076344;28;45377;-77
2023/04/06 10:05:39;;;;;;;;;2.50;2.50;;;;;22.63;36.63;101477.19;5016943;28;45383;-78
2023/04/06 10:08:09;;;;;;;;;2.00;2.00;;;;;22.62;36.37;101488.78;5033571;28;47177;-79
2023/04/06 10:10:35;;;;;;;;;1.00;1.00;;;;;22.61;36.33;101487.94;5032763;28;45449;-78
2023/04/06 10:13:02;;;;;;;;;1.33;1.33;;;;;22.61;35.97;101487.16;5033707;28;45434;-78
2023/04/06 10:15:29;;;;;;;;;1.50;1.50;;;;;22.56;36.02;101479.66;5033751;28;45389;-78
2023/04/06 10:17:55;;;;;;;;;1.00;1.00;;;;;22.55;35.86;101472.72;5032928;28;46274;-79
2023/04/06 10:20:27;;;;;;;;;2.00;2.00;;;;;22.62;36.30;101479.00;5033654;28;45421;-78
2023/04/06 10:23:14;;;;;;;;;3.00;3.00;;;;;22.64;36.43;101476.19;5033553;28;45543;-79
2023/04/06 10:25:39;;;;;;;;;1.75;1.75;;;;;22.65;36.11;101484.97;5033172;28;45444;-79
2023/04/06 10:28:07;;;;;;;;;2.00;2.00;;;;;22.58;36.32;101458.31;5032809;28;46756;-77
2023/04/06 10:30:41;;;;;;;;;2.50;2.00;;;;;22.68;36.49;101474.03;5033547;28;45374;-78
2023/04/06 10:33:17;;;;;;;;;4.75;1.50;;;;;22.61;36.12;101458.78;5033278;28;45477;-78
2023/04/06 10:35:43;;;;;;;;;2.00;2.00;;;;;22.66;36.41;101468.91;5033280;28;45653;-78
2023/04/06 10:38:09;;;;;;;;;2.00;2.00;;;;;22.59;36.26;101458.13;5033161;28;45977;-78
2023/04/06 10:40:39;;;;;;;;;2.00;2.00;;;;;22.66;35.91;101473.38;5033124;28;45465;-78
2023/04/06 10:43:10;;;;;;;;;2.00;2.00;;;;;22.66;36.00;101473.38;5053202;28;45368;-77
2023/04/06 10:45:37;;;;;;;;;1.67;1.67;;;;;22.67;36.28;101480.31;5055667;28;45352;-78
2023/04/06 10:48:16;;;;;;;;;1.00;1.00;;;;;22.67;35.89;101477.66;5055205;28;45409;-77
2023/04/06 10:50:45;;;;;;;;;3.00;1.50;;;;;22.67;36.36;101478.50;5055464;28;45245;-78
2023/04/06 10:53:10;;;;;;;;;3.00;2.00;;;;;22.68;36.32;101468.72;5055579;28;45502;-78
2023/04/06 10:55:40;;;;;;;;;2.00;2.00;;;;;22.68;36.17;101468.72;5055141;28;45344;-78
2023/04/06 10:58:08;;;;;;;;;2.33;2.33;;;;;22.68;35.86;101469.56;5055643;28;45356;-78
2023/04/06 11:00:35;;;;;;;;;3.00;3.00;;;;;22.67;35.74;101459.94;5055314;28;45463;-79
2023/04/06 11:03:03;;;;;;;;;3.00;2.33;;;;;22.67;36.29;101472.34;5055455;28;45364;-78
2023/04/06 11:05:28;;;;;;;;;3.00;2.00;;;;;22.68;36.18;101463.41;5055488;28;45336;-79
2023/04/06 11:07:54;;;;;;;;;2.00;2.00;;;;;22.69;36.39;101465.09;5054988;28;46158;-77
2023/04/06 11:10:22;;;;;;;;;1.00;1.00;;;;;22.69;35.81;101473.03;5055466;28;45432;-78
2023/04/06 11:12:54;;;;;;;;;3.00;2.00;;;;;22.68;35.80;101466.91;5055336;28;45362;-78
2023/04/06 11:15:20;;;;;;;;;2.00;2.00;;;;;22.59;36.08;101455.47;5055304;28;45531;-78
2023/04/06 11:17:45;;;;;;;;;2.75;2.00;;;;;22.69;36.35;101476.50;5055264;28;46782;-78
2023/04/06 11:20:11;;;;;;;;;2.33;1.67;;;;;22.70;35.78;101469.41;5055210;28;45428;-78